Time;durP1;ratioP1;P1;durP2;ratioP2;P2;SDS_P1;SDS_P2;PMS_P1;PMS_P2;Temp;Humidity;BMP_temperature;BMP_pressure;BME280_temperature;BME280_humidity;BME280_pressure;Samples;Min_cycle;Max_cycle;Signal;HPM_P1;HPM_P2
2021/06/19 00:00:56;;;;;;;17.80;15.93;;;17.70;98.60;;;;;;4999067;28;20220;-83
2021/06/19 00:03:25;;;;;;;19.47;16.00;;;17.70;99.10;;;;;;5000403;28;20203;-83
2021/06/19 00:05:54;;;;;;;18.90;16.93;;;17.60;99.20;;;;;;4997659;28;20218;-85
2021/06/19 00:08:24;;;;;;;17.37;15.67;;;17.60;99.70;;;;;;4996767;28;20243;-85
2021/06/19 00:10:54;;;;;;;18.07;16.03;;;17.50;99.50;;;;;;4994854;28;20524;-84
2021/06/19 00:13:22;;;;;;;17.60;15.80;;;17.40;99.90;;;;;;5002683;28;20704;-84
2021/06/19 00:15:51;;;;;;;18.63;16.57;;;17.40;99.90;;;;;;4996048;28;20221;-83
2021/06/19 00:18:20;;;;;;;18.13;16.23;;;17.30;99.90;;;;;;4994869;28;20304;-83
2021/06/19 00:20:49;;;;;;;19.47;17.30;;;17.30;99.90;;;;;;4995788;28;20234;-83
2021/06/19 00:23:18;;;;;;;17.37;15.73;;;17.20;99.90;;;;;;5001851;28;20342;-84
2021/06/19 00:25:48;;;;;;;17.77;16.10;;;17.20;99.90;;;;;;4995332;28;20213;-86
2021/06/19 00:28:16;;;;;;;18.50;16.60;;;17.20;99.90;;;;;;4993165;28;20211;-85
2021/06/19 00:30:45;;;;;;;18.37;16.53;;;17.10;99.90;;;;;;4993079;28;20211;-84
2021/06/19 00:33:14;;;;;;;18.67;16.80;;;17.20;99.90;;;;;;4992859;28;20215;-84
2021/06/19 00:35:42;;;;;;;19.03;17.03;;;17.10;99.90;;;;;;4992148;28;20251;-84
2021/06/19 00:38:11;;;;;;;18.93;17.13;;;17.10;99.90;;;;;;4992440;28;20210;-83
2021/06/19 00:40:40;;;;;;;19.47;17.57;;;17.10;99.90;;;;;;4989148;28;20727;-85
2021/06/19 00:43:10;;;;;;;18.70;16.90;;;17.00;99.90;;;;;;4992479;28;20730;-82
2021/06/19 00:45:39;;;;;;;17.67;15.70;;;16.90;99.90;;;;;;4993043;28;20368;-84
2021/06/19 00:48:09;;;;;;;18.40;16.50;;;16.90;99.90;;;;;;4998427;28;20618;-84
2021/06/19 00:50:39;;;;;;;19.27;17.33;;;16.80;99.90;;;;;;4996355;28;20229;-84
2021/06/19 00:53:08;;;;;;;19.17;17.27;;;16.80;99.90;;;;;;4995038;28;20646;-84
2021/06/19 00:55:38;;;;;;;19.80;17.70;;;16.70;99.90;;;;;;4998319;28;20207;-83
2021/06/19 00:58:06;;;;;;;18.57;16.77;;;16.70;99.90;;;;;;4987464;28;20269;-83
2021/06/19 01:00:37;;;;;;;19.30;17.27;;;16.60;99.90;;;;;;4993189;28;20234;-84
2021/06/19 01:03:06;;;;;;;20.90;17.23;;;16.70;99.90;;;;;;4992740;28;20235;-84
2021/06/19 01:05:35;;;;;;;18.87;16.70;;;16.60;99.90;;;;;;4992515;28;20269;-85
2021/06/19 01:08:03;;;;;;;18.80;16.90;;;16.60;99.90;;;;;;4990761;28;20199;-84
2021/06/19 01:10:32;;;;;;;19.10;17.30;;;16.60;99.90;;;;;;4985990;28;20213;-83
2021/06/19 01:13:01;;;;;;;18.23;16.63;;;16.50;99.90;;;;;;4996460;28;20208;-84
2021/06/19 01:15:31;;;;;;;20.33;18.37;;;16.60;99.90;;;;;;5013564;28;20200;-85
2021/06/19 01:18:01;;;;;;;19.70;17.80;;;16.40;99.90;;;;;;5019240;28;20461;-84
2021/06/19 01:20:35;;;;;;;19.37;17.57;;;16.40;99.90;;;;;;5011418;28;20286;-83
2021/06/19 01:23:07;;;;;;;20.97;18.90;;;16.40;99.90;;;;;;4992694;28;20207;-84
2021/06/19 01:25:38;;;;;;;20.70;18.60;;;16.40;99.90;;;;;;5012010;28;20262;-84
2021/06/19 01:28:10;;;;;;;21.07;19.00;;;16.40;99.90;;;;;;4990184;28;20207;-84
2021/06/19 01:30:40;;;;;;;19.47;17.60;;;16.30;99.90;;;;;;4993128;28;20666;-84
2021/06/19 01:33:09;;;;;;;21.23;19.03;;;16.30;99.90;;;;;;4989532;28;20219;-84
2021/06/19 01:35:38;;;;;;;21.60;19.30;;;16.20;99.90;;;;;;4991555;28;20207;-85
2021/06/19 01:38:08;;;;;;;20.87;18.77;;;16.30;99.90;;;;;;4997467;28;20309;-83
2021/06/19 01:40:38;;;;;;;20.93;18.83;;;16.20;99.90;;;;;;5002031;28;20239;-84
2021/06/19 01:43:07;;;;;;;20.10;18.20;;;16.10;99.90;;;;;;5003166;28;21073;-84
2021/06/19 01:45:37;;;;;;;20.50;18.60;;;16.00;99.90;;;;;;4994476;28;20222;-84
2021/06/19 01:48:08;;;;;;;22.10;20.10;;;16.00;99.90;;;;;;4993984;28;20591;-81
2021/06/19 01:50:38;;;;;;;21.80;19.77;;;16.00;99.90;;;;;;5007309;28;20372;-84
2021/06/19 01:53:07;;;;;;;20.93;18.97;;;16.00;99.90;;;;;;5006780;28;20922;-85
2021/06/19 01:55:39;;;;;;;21.57;19.47;;;16.00;99.90;;;;;;5016048;28;20204;-82
2021/06/19 01:58:08;;;;;;;20.77;18.77;;;16.00;99.90;;;;;;5011393;28;20238;-83
2021/06/19 02:00:36;;;;;;;22.67;20.37;;;16.00;99.90;;;;;;5014179;28;20290;-83
2021/06/19 02:03:07;;;;;;;22.10;19.80;;;16.00;99.90;;;;;;5015950;28;20275;-86
2021/06/19 02:05:37;;;;;;;20.57;18.53;;;16.00;99.90;;;;;;5010289;28;20883;-84
2021/06/19 02:08:09;;;;;;;21.27;19.20;;;16.00;99.90;;;;;;5018036;28;20329;-83
2021/06/19 02:10:41;;;;;;;21.53;19.53;;;16.00;99.90;;;;;;5014234;28;20210;-83
2021/06/19 02:13:10;;;;;;;22.27;20.00;;;15.90;99.90;;;;;;5013231;28;20581;-84
2021/06/19 02:15:42;;;;;;;21.67;19.67;;;15.90;99.90;;;;;;5009398;28;20203;-82
2021/06/19 02:18:11;;;;;;;24.40;20.33;;;15.80;99.90;;;;;;5005847;28;20218;-83
2021/06/19 02:20:39;;;;;;;21.90;19.57;;;15.80;99.90;;;;;;5018650;28;20235;-83
2021/06/19 02:23:08;;;;;;;22.13;19.77;;;15.80;99.90;;;;;;5013775;28;20203;-83
2021/06/19 02:25:39;;;;;;;22.33;19.93;;;15.80;99.90;;;;;;5003642;28;20218;-84
2021/06/19 02:28:10;;;;;;;22.07;19.97;;;15.80;99.90;;;;;;4992692;28;20243;-84
2021/06/19 02:30:41;;;;;;;22.33;20.33;;;15.80;99.90;;;;;;4995394;28;20203;-83
2021/06/19 02:33:11;;;;;;;22.17;19.10;;;15.80;99.90;;;;;;4992124;28;20230;-84
2021/06/19 02:35:41;;;;;;;21.53;19.43;;;15.80;99.90;;;;;;4989197;28;20678;-83
2021/06/19 02:38:10;;;;;;;23.07;20.77;;;15.90;99.90;;;;;;4989517;28;20207;-83
2021/06/19 02:40:41;;;;;;;20.97;18.77;;;15.90;99.90;;;;;;4989614;28;20775;-83
2021/06/19 02:43:10;;;;;;;21.60;19.67;;;15.90;99.90;;;;;;4995609;28;20237;-85
2021/06/19 02:45:40;;;;;;;22.13;19.93;;;16.00;99.90;;;;;;4996191;28;20689;-84
2021/06/19 02:48:09;;;;;;;22.53;20.27;;;16.00;99.90;;;;;;4990467;28;20212;-84
2021/06/19 02:50:39;;;;;;;21.93;19.93;;;16.00;99.90;;;;;;4996548;28;20776;-83
2021/06/19 02:53:09;;;;;;;22.13;20.03;;;16.10;99.90;;;;;;4994926;28;20243;-86
2021/06/19 02:55:40;;;;;;;21.57;19.57;;;16.10;99.90;;;;;;5001945;28;20214;-85
2021/06/19 02:58:10;;;;;;;20.50;18.40;;;16.10;99.90;;;;;;4994832;28;20213;-86
2021/06/19 03:00:40;;;;;;;22.00;19.70;;;16.20;99.90;;;;;;4995463;28;20234;-84
2021/06/19 03:03:09;;;;;;;22.60;19.93;;;16.20;99.90;;;;;;4998552;28;20235;-83
2021/06/19 03:05:41;;;;;;;22.00;19.80;;;16.30;99.90;;;;;;5011340;28;20243;-83
2021/06/19 03:08:10;;;;;;;21.83;19.73;;;16.40;99.90;;;;;;5001377;28;20234;-85
2021/06/19 03:10:41;;;;;;;21.43;19.30;;;16.40;99.90;;;;;;4999860;28;20665;-85
2021/06/19 03:13:10;;;;;;;20.83;18.87;;;16.50;99.90;;;;;;4993608;28;20751;-82
2021/06/19 03:15:38;;;;;;;21.10;18.90;;;16.60;99.90;;;;;;4998577;28;20203;-85
2021/06/19 03:18:07;;;;;;;25.80;23.30;;;16.60;99.90;;;;;;4987573;28;20214;-82
2021/06/19 03:20:36;;;;;;;21.53;19.53;;;16.80;99.90;;;;;;4998852;28;20346;-83
2021/06/19 03:23:06;;;;;;;21.07;19.20;;;16.80;99.90;;;;;;5004223;28;20235;-85
2021/06/19 03:25:42;;;;;;;21.80;19.57;;;16.90;99.90;;;;;;5020020;28;20230;-84
2021/06/19 03:28:12;;;;;;;23.40;20.03;;;17.00;99.90;;;;;;5017512;28;20269;-84
2021/06/19 03:30:42;;;;;;;19.87;18.07;;;17.10;99.90;;;;;;4997415;28;20200;-84
2021/06/19 03:33:12;;;;;;;19.57;17.77;;;17.20;99.90;;;;;;4998934;28;20672;-84
2021/06/19 03:35:41;;;;;;;21.47;19.47;;;17.30;99.90;;;;;;4995420;28;20308;-83
2021/06/19 03:38:10;;;;;;;20.23;18.23;;;17.40;99.90;;;;;;4994554;28;20199;-82
2021/06/19 03:40:40;;;;;;;20.23;18.20;;;17.40;99.90;;;;;;5006163;28;20224;-85
2021/06/19 03:43:09;;;;;;;19.87;17.93;;;17.50;99.90;;;;;;5005528;28;20207;-83
2021/06/19 03:45:38;;;;;;;21.47;19.00;;;17.60;99.90;;;;;;5007686;28;20237;-84
2021/06/19 03:48:08;;;;;;;19.03;17.23;;;17.70;99.90;;;;;;5000652;28;20207;-83
2021/06/19 03:50:37;;;;;;;20.10;18.30;;;17.70;99.90;;;;;;5005165;28;20277;-85
2021/06/19 03:53:06;;;;;;;20.27;18.30;;;17.90;99.90;;;;;;5000361;28;20211;-84
2021/06/19 03:55:35;;;;;;;19.03;17.37;;;18.00;99.90;;;;;;4994190;28;20689;-82
2021/06/19 03:58:05;;;;;;;20.13;18.23;;;18.10;99.30;;;;;;4994028;28;20219;-82
2021/06/19 04:00:34;;;;;;;19.27;17.37;;;18.20;97.50;;;;;;4989936;28;20585;-83
2021/06/19 04:03:04;;;;;;;18.73;16.93;;;18.30;95.90;;;;;;4993375;28;20325;-84
2021/06/19 04:05:33;;;;;;;19.57;17.43;;;18.40;95.50;;;;;;4992590;28;20527;-85
2021/06/19 04:08:02;;;;;;;17.70;15.77;;;18.50;95.10;;;;;;4991340;28;20777;-84
2021/06/19 04:10:31;;;;;;;17.87;15.97;;;18.60;94.70;;;;;;4998259;28;20705;-81
2021/06/19 04:13:00;;;;;;;17.30;15.63;;;18.70;94.30;;;;;;4994291;28;20569;-85
2021/06/19 04:15:30;;;;;;;17.53;15.77;;;18.90;94.10;;;;;;5010983;28;20191;-85
2021/06/19 04:17:59;;;;;;;21.07;16.23;;;19.00;93.90;;;;;;5012507;28;20291;-83
2021/06/19 04:20:27;;;;;;;17.70;15.87;;;19.10;93.70;;;;;;5001605;28;20204;-82
2021/06/19 04:22:56;;;;;;;17.13;15.37;;;19.30;93.30;;;;;;4994868;28;20274;-84
2021/06/19 04:25:25;;;;;;;16.03;14.57;;;19.40;92.70;;;;;;4987964;28;20199;-83
2021/06/19 04:27:55;;;;;;;22.53;14.90;;;19.70;91.70;;;;;;4993134;28;20322;-84
2021/06/19 04:30:31;;;;;;;18.93;15.50;;;19.80;91.60;;;;;;4991687;28;20211;-83
2021/06/19 04:32:59;;;;;;;16.50;14.67;;;20.00;91.00;;;;;;4990642;28;20333;-83
2021/06/19 04:35:29;;;;;;;16.73;14.90;;;20.10;90.90;;;;;;5007664;28;20219;-83
2021/06/19 04:37:57;;;;;;;17.20;14.40;;;20.30;90.80;;;;;;5005075;28;20203;-83
2021/06/19 04:40:32;;;;;;;15.60;14.17;;;20.40;90.90;;;;;;5005628;28;20214;-83
2021/06/19 04:43:04;;;;;;;16.77;14.63;;;20.60;90.80;;;;;;4988582;28;20249;-85
2021/06/19 04:45:35;;;;;;;15.53;14.00;;;20.80;90.20;;;;;;4999194;28;20216;-84
2021/06/19 04:48:05;;;;;;;16.73;14.67;;;20.90;89.90;;;;;;4997277;28;20207;-85
2021/06/19 04:50:37;;;;;;;16.43;14.33;;;21.10;90.00;;;;;;4989134;28;20559;-84
2021/06/19 04:53:07;;;;;;;20.50;14.40;;;21.30;89.60;;;;;;5003376;28;20214;-82
2021/06/19 04:55:36;;;;;;;15.23;13.60;;;21.50;89.00;;;;;;4992681;28;20208;-83
2021/06/19 04:58:05;;;;;;;15.07;13.60;;;21.60;88.70;;;;;;4993069;28;20289;-82
2021/06/19 05:00:35;;;;;;;14.13;12.70;;;21.80;88.40;;;;;;4994214;28;20279;-83
2021/06/19 05:03:05;;;;;;;14.63;13.33;;;22.10;87.90;;;;;;4992776;28;20876;-85
2021/06/19 05:05:34;;;;;;;13.50;12.13;;;22.30;87.30;;;;;;4994536;28;20212;-83
2021/06/19 05:08:03;;;;;;;13.98;12.43;;;22.50;87.10;;;;;;5007850;28;20203;-83
2021/06/19 05:10:31;;;;;;;13.57;12.35;;;22.50;86.30;;;;;;5006977;28;20219;-82
2021/06/19 05:13:00;;;;;;;14.25;12.32;;;22.50;86.20;;;;;;4983971;28;20207;-82
2021/06/19 05:15:29;;;;;;;13.93;11.85;;;22.60;85.70;;;;;;4991223;28;20277;-83
2021/06/19 05:17:59;;;;;;;12.10;11.10;;;22.80;85.50;;;;;;4989436;28;20293;-86
2021/06/19 05:20:29;;;;;;;13.30;11.90;;;22.90;85.40;;;;;;4985750;28;20358;-84
2021/06/19 05:22:58;;;;;;;13.18;11.48;;;23.00;85.10;;;;;;4989675;28;20606;-82
2021/06/19 05:25:27;;;;;;;11.98;10.98;;;23.00;84.80;;;;;;4982890;28;20200;-81
2021/06/19 05:27:56;;;;;;;12.63;11.32;;;23.10;84.60;;;;;;4983874;28;20214;-83
2021/06/19 05:30:25;;;;;;;12.50;11.27;;;23.20;84.80;;;;;;4988527;28;20501;-82
2021/06/19 05:32:54;;;;;;;12.23;11.10;;;23.30;84.50;;;;;;4991739;28;20242;-81
2021/06/19 05:35:24;;;;;;;11.55;10.52;;;23.40;84.60;;;;;;5011929;28;20200;-81
2021/06/19 05:37:52;;;;;;;11.10;10.10;;;23.60;84.30;;;;;;5003922;28;20210;-83
2021/06/19 05:40:21;;;;;;;10.40;9.50;;;23.70;83.80;;;;;;4988201;28;20792;-83
2021/06/19 05:42:49;;;;;;;11.30;10.13;;;23.90;83.40;;;;;;4972334;28;21099;-83
2021/06/19 05:45:18;;;;;;;10.95;9.93;;;24.00;83.30;;;;;;4982605;28;20254;-84
2021/06/19 05:47:47;;;;;;;9.95;9.13;;;24.10;83.50;;;;;;4990056;28;20660;-82
2021/06/19 05:50:15;;;;;;;10.30;9.35;;;24.20;83.40;;;;;;4981695;28;20211;-81
2021/06/19 05:52:46;;;;;;;10.50;8.75;;;24.30;82.60;;;;;;4984701;28;20279;-84
2021/06/19 05:55:16;;;;;;;9.68;8.80;;;24.40;82.70;;;;;;4984238;28;20282;-83
2021/06/19 05:57:45;;;;;;;10.85;9.35;;;24.60;82.40;;;;;;4983604;28;20512;-81
2021/06/19 06:00:14;;;;;;;9.38;8.48;;;24.70;81.80;;;;;;4984282;28;20468;-82
2021/06/19 06:02:44;;;;;;;10.10;9.20;;;24.90;81.80;;;;;;4985499;28;20425;-83
2021/06/19 06:05:14;;;;;;;8.95;8.10;;;25.00;81.70;;;;;;4986008;28;20758;-84
2021/06/19 06:07:43;;;;;;;8.70;8.00;;;25.10;81.30;;;;;;4995626;28;20746;-84
2021/06/19 06:10:13;;;;;;;8.63;7.93;;;25.00;80.80;;;;;;4991021;28;20211;-81
2021/06/19 06:12:43;;;;;;;8.82;7.55;;;25.20;81.10;;;;;;4988724;28;20713;-86
2021/06/19 06:15:12;;;;;;;8.80;7.97;;;25.30;80.40;;;;;;4978662;28;20233;-80
2021/06/19 06:17:41;;;;;;;8.63;7.82;;;25.40;80.40;;;;;;4985189;28;20294;-82
2021/06/19 06:20:11;;;;;;;8.00;7.28;;;25.50;80.00;;;;;;4983608;28;20539;-82
2021/06/19 06:22:42;;;;;;;7.63;7.00;;;25.60;79.80;;;;;;4990267;28;20223;-83
2021/06/19 06:25:13;;;;;;;7.32;6.72;;;25.80;79.60;;;;;;4993962;28;20223;-83
2021/06/19 06:27:42;;;;;;;8.23;6.57;;;25.80;79.40;;;;;;4979134;28;20441;-84
2021/06/19 06:30:12;;;;;;;8.48;6.70;;;25.80;79.10;;;;;;4961847;28;20220;-83
2021/06/19 06:32:41;;;;;;;9.10;6.57;;;25.90;78.80;;;;;;4984875;28;20200;-85
2021/06/19 06:35:11;;;;;;;7.55;6.85;;;26.00;78.70;;;;;;4984925;28;20242;-83
2021/06/19 06:37:41;;;;;;;7.30;6.60;;;26.10;78.20;;;;;;4993742;28;20203;-82
2021/06/19 06:40:12;;;;;;;7.30;6.70;;;26.20;78.10;;;;;;4991314;28;20330;-83
2021/06/19 06:42:42;;;;;;;6.97;6.28;;;26.30;77.90;;;;;;4989825;28;20333;-82
2021/06/19 06:45:15;;;;;;;6.93;5.70;;;26.40;77.90;;;;;;4982541;28;20759;-80
2021/06/19 06:47:49;;;;;;;6.22;5.63;;;26.40;77.50;;;;;;4976915;28;20672;-82
2021/06/19 06:50:19;;;;;;;7.80;6.30;;;26.50;77.40;;;;;;4971544;28;20212;-82
2021/06/19 06:52:50;;;;;;;8.57;5.47;;;26.60;77.60;;;;;;4987870;28;20207;-80
2021/06/19 06:55:18;;;;;;;6.40;5.80;;;26.80;76.90;;;;;;4979074;28;20239;-82
2021/06/19 06:57:49;;;;;;;5.80;5.22;;;27.00;76.60;;;;;;4979405;28;20294;-83
2021/06/19 07:00:18;;;;;;;6.25;5.03;;;27.20;75.70;;;;;;4981650;28;20210;-82
2021/06/19 07:02:47;;;;;;;6.22;5.40;;;27.20;75.80;;;;;;4982193;28;20318;-84
2021/06/19 07:05:16;;;;;;;5.70;5.20;;;27.30;75.30;;;;;;4983893;28;20401;-82
2021/06/19 07:07:46;;;;;;;6.55;5.35;;;27.40;75.60;;;;;;4985963;28;20213;-80
2021/06/19 07:10:15;;;;;;;6.47;5.85;;;27.50;75.00;;;;;;4982233;28;20261;-83
2021/06/19 07:12:45;;;;;;;7.90;5.03;;;27.60;75.00;;;;;;4984800;28;20200;-83
2021/06/19 07:15:17;;;;;;;5.10;4.65;;;27.70;73.90;;;;;;4975073;28;20263;-84
2021/06/19 07:17:48;;;;;;;6.35;5.47;;;27.70;73.20;;;;;;4980866;28;20955;-81
2021/06/19 07:20:20;;;;;;;6.85;5.28;;;27.80;72.60;;;;;;4983337;28;20500;-83
2021/06/19 07:22:49;;;;;;;6.32;5.05;;;27.80;72.60;;;;;;4980064;28;20208;-79
2021/06/19 07:25:18;;;;;;;6.65;5.68;;;27.90;73.30;;;;;;4983797;28;20763;-84
2021/06/19 07:27:53;;;;;;;5.43;4.93;;;28.00;73.10;;;;;;4982480;28;20266;-82
2021/06/19 07:30:24;;;;;;;7.03;5.38;;;28.20;73.40;;;;;;4994353;28;20285;-81
2021/06/19 07:32:53;;;;;;;5.78;4.70;;;28.30;72.80;;;;;;5006946;28;20208;-82
2021/06/19 07:35:22;;;;;;;8.85;5.10;;;28.40;72.10;;;;;;4986360;28;20203;-82
2021/06/19 07:37:50;;;;;;;5.82;5.15;;;28.60;71.70;;;;;;4984697;28;20207;-83
2021/06/19 07:40:19;;;;;;;6.25;5.65;;;28.60;71.50;;;;;;4987044;28;20235;-84
2021/06/19 07:42:47;;;;;;;6.93;6.20;;;28.70;71.70;;;;;;5004844;28;20203;-83
2021/06/19 07:45:17;;;;;;;8.40;6.00;;;28.80;72.60;;;;;;5013279;28;20254;-83
2021/06/19 07:47:47;;;;;;;8.15;5.40;;;28.80;72.20;;;;;;5001022;28;20196;-84
2021/06/19 07:50:16;;;;;;;6.43;5.55;;;28.70;72.10;;;;;;4997369;28;20199;-81
2021/06/19 07:52:46;;;;;;;5.80;5.30;;;28.80;72.60;;;;;;4994747;28;20678;-83
2021/06/19 07:55:15;;;;;;;6.57;5.97;;;28.80;72.10;;;;;;5001377;28;20204;-83
2021/06/19 07:57:44;;;;;;;7.10;5.43;;;28.60;72.00;;;;;;4984135;28;20320;-85
2021/06/19 08:00:14;;;;;;;8.85;5.93;;;28.50;71.80;;;;;;4982597;28;20417;-87
2021/06/19 08:02:47;;;;;;;5.95;5.13;;;28.50;72.30;;;;;;4984530;28;20264;-86
2021/06/19 08:05:18;;;;;;;5.97;5.10;;;28.50;72.50;;;;;;4982693;28;20313;-82
2021/06/19 08:07:46;;;;;;;7.72;5.05;;;28.70;71.70;;;;;;4990294;28;20674;-83
2021/06/19 08:10:15;;;;;;;5.32;4.60;;;28.70;71.30;;;;;;5004867;28;20238;-84
2021/06/19 08:12:45;;;;;;;5.03;4.53;;;28.80;70.70;;;;;;5006153;28;20210;-82
2021/06/19 08:15:14;;;;;;;5.43;4.72;;;28.80;71.40;;;;;;5010801;28;20223;-85
2021/06/19 08:17:43;;;;;;;6.03;5.22;;;28.90;70.40;;;;;;4995960;28;20725;-83
2021/06/19 08:20:13;;;;;;;8.88;5.07;;;29.00;69.90;;;;;;4988097;28;20239;-84
2021/06/19 08:22:44;;;;;;;6.45;5.95;;;29.00;69.50;;;;;;4984532;28;20223;-81
2021/06/19 08:25:13;;;;;;;5.40;4.35;;;29.10;70.00;;;;;;5005426;28;20231;-82
2021/06/19 08:27:41;;;;;;;4.55;3.85;;;29.20;69.40;;;;;;5003036;28;20232;-83
2021/06/19 08:30:12;;;;;;;7.88;4.40;;;29.10;68.70;;;;;;5007899;28;20203;-82
2021/06/19 08:32:42;;;;;;;5.35;3.65;;;29.20;68.50;;;;;;4985242;28;20688;-85
2021/06/19 08:35:11;;;;;;;4.40;4.00;;;29.20;68.90;;;;;;4982477;28;20203;-84
2021/06/19 08:37:40;;;;;;;4.32;3.92;;;29.20;69.10;;;;;;4980928;28;20640;-82
2021/06/19 08:40:11;;;;;;;5.90;4.00;;;29.10;68.90;;;;;;4989056;28;20204;-84
2021/06/19 08:42:40;;;;;;;5.60;4.68;;;29.10;69.80;;;;;;4983173;28;20202;-83
2021/06/19 08:45:09;;;;;;;4.43;3.65;;;29.10;69.50;;;;;;4986932;28;20910;-84
2021/06/19 08:47:39;;;;;;;5.47;3.88;;;29.20;69.80;;;;;;4981429;28;20203;-85
2021/06/19 08:50:09;;;;;;;4.70;3.97;;;29.30;69.80;;;;;;4986574;28;20352;-83
2021/06/19 08:52:40;;;;;;;5.68;4.47;;;29.40;70.10;;;;;;4978023;28;20437;-84
2021/06/19 08:55:14;;;;;;;5.47;4.28;;;29.60;70.60;;;;;;4984287;28;20207;-84
2021/06/19 08:57:43;;;;;;;4.93;4.40;;;29.70;70.10;;;;;;4980846;28;21062;-82
2021/06/19 09:00:14;;;;;;;6.00;4.85;;;29.70;70.50;;;;;;4982268;28;20281;-82
2021/06/19 09:02:46;;;;;;;5.30;4.80;;;29.80;70.90;;;;;;5003010;28;20474;-83
2021/06/19 09:05:17;;;;;;;5.35;4.85;;;29.80;70.30;;;;;;4998380;28;20235;-83
2021/06/19 09:07:46;;;;;;;4.88;4.38;;;29.80;70.60;;;;;;4980891;28;20212;-83
2021/06/19 09:10:25;;;;;;;5.95;4.80;;;29.70;70.90;;;;;;4982835;28;20201;-84
2021/06/19 09:13:02;;;;;;;5.38;4.97;;;29.60;71.40;;;;;;4981085;28;20314;-82
2021/06/19 09:15:33;;;;;;;5.88;5.30;;;29.70;72.00;;;;;;4988747;28;20226;-84
2021/06/19 09:18:05;;;;;;;5.78;5.28;;;29.90;71.80;;;;;;4984007;28;20206;-82
2021/06/19 09:20:35;;;;;;;8.30;4.85;;;29.90;71.10;;;;;;4980976;28;20223;-82
2021/06/19 09:23:06;;;;;;;5.55;5.03;;;29.90;71.20;;;;;;4982215;28;21538;-84
2021/06/19 09:25:36;;;;;;;5.65;5.15;;;29.80;71.20;;;;;;4983979;28;20227;-83
2021/06/19 09:28:06;;;;;;;5.65;5.15;;;29.80;71.10;;;;;;4988892;28;20305;-81
2021/06/19 09:30:35;;;;;;;5.45;5.05;;;29.90;70.90;;;;;;4983675;28;20481;-85
2021/06/19 09:33:07;;;;;;;5.93;5.20;;;29.90;71.10;;;;;;4988632;28;20560;-83
2021/06/19 09:35:37;;;;;;;6.35;4.60;;;30.00;71.40;;;;;;4981580;28;20207;-82
2021/06/19 09:38:07;;;;;;;5.22;4.75;;;30.00;70.30;;;;;;4989657;28;20226;-82
2021/06/19 09:40:39;;;;;;;8.18;5.68;;;29.90;71.30;;;;;;4989665;28;20210;-81
2021/06/19 09:43:11;;;;;;;5.53;5.03;;;29.90;71.60;;;;;;4984267;28;20301;-85
2021/06/19 09:45:41;;;;;;;5.30;4.90;;;30.00;71.00;;;;;;4985755;28;20330;-84
2021/06/19 09:48:26;;;;;;;6.28;5.40;;;29.70;71.20;;;;;;4986302;28;20277;-84
2021/06/19 09:51:15;;;;;;;6.40;4.90;;;29.70;71.00;;;;;;5005097;28;20239;-83
2021/06/19 09:53:45;;;;;;;5.25;4.88;;;29.70;70.90;;;;;;5011100;28;20273;-83
2021/06/19 09:56:18;;;;;;;5.47;4.97;;;29.70;70.50;;;;;;5002702;28;20208;-82
2021/06/19 09:58:49;;;;;;;6.05;5.45;;;29.70;71.10;;;;;;4987253;28;20808;-84
2021/06/19 10:01:40;;;;;;;5.22;4.72;;;29.60;71.00;;;;;;4984386;28;21121;-81
2021/06/19 10:04:10;;;;;;;5.80;5.30;;;29.70;71.00;;;;;;4990327;28;20203;-83
2021/06/19 10:06:39;;;;;;;6.22;5.63;;;29.70;71.30;;;;;;4998162;28;20203;-83
2021/06/19 10:09:07;;;;;;;6.22;5.32;;;29.70;71.10;;;;;;5015507;28;20195;-82
2021/06/19 10:11:39;;;;;;;4.68;4.38;;;29.70;71.30;;;;;;5003772;28;20623;-81
2021/06/19 10:14:10;;;;;;;4.18;3.30;;;29.70;70.30;;;;;;4996055;28;20530;-83
2021/06/19 10:16:42;;;;;;;4.00;3.38;;;29.80;68.20;;;;;;4997078;28;20430;-82
2021/06/19 10:19:11;;;;;;;4.50;3.30;;;29.90;68.70;;;;;;4995586;28;20196;-82
2021/06/19 10:21:40;;;;;;;3.53;3.17;;;30.00;68.00;;;;;;4995321;28;20797;-84
2021/06/19 10:24:09;;;;;;;4.35;3.92;;;30.20;68.40;;;;;;4986268;28;20373;-82
2021/06/19 10:26:40;;;;;;;7.03;4.30;;;30.30;68.00;;;;;;4986387;28;20291;-81
2021/06/19 10:29:10;;;;;;;5.43;4.45;;;30.30;68.80;;;;;;4987275;28;20249;-85
2021/06/19 10:31:43;;;;;;;5.95;4.80;;;30.20;69.50;;;;;;4987685;28;20208;-83
2021/06/19 10:34:23;;;;;;;5.43;4.93;;;29.90;69.70;;;;;;4985915;28;20277;-80
2021/06/19 10:37:09;;;;;;;5.15;4.65;;;29.80;69.30;;;;;;4980862;28;20210;-82
2021/06/19 10:39:42;;;;;;;4.57;4.28;;;29.70;69.30;;;;;;4987585;28;20807;-83
2021/06/19 10:42:34;;;;;;;5.15;4.65;;;29.70;69.30;;;;;;4990976;28;20211;-82
2021/06/19 10:45:05;;;;;;;4.63;4.32;;;29.70;69.50;;;;;;4996606;28;20512;-83
2021/06/19 10:47:59;;;;;;;5.75;4.68;;;29.90;69.20;;;;;;4987798;28;20215;-83
2021/06/19 10:50:29;;;;;;;4.88;4.38;;;29.70;68.80;;;;;;4995670;28;20204;-82
2021/06/19 10:53:08;;;;;;;4.78;4.22;;;29.60;68.80;;;;;;4987046;28;20920;-83
2021/06/19 10:55:53;;;;;;;5.88;4.60;;;29.50;69.50;;;;;;4989369;28;20579;-82
2021/06/19 10:58:26;;;;;;;5.50;4.50;;;29.40;69.20;;;;;;4993352;28;20401;-82
2021/06/19 11:00:56;;;;;;;5.75;5.05;;;29.50;69.90;;;;;;4982601;28;20924;-81
2021/06/19 11:03:43;;;;;;;5.63;4.25;;;29.80;70.50;;;;;;4990172;28;20210;-82
2021/06/19 11:06:23;;;;;;;5.00;4.50;;;30.10;68.90;;;;;;4991207;28;20552;-82
2021/06/19 11:09:03;;;;;;;4.70;4.28;;;30.30;69.00;;;;;;4987282;28;20215;-81
2021/06/19 11:11:49;;;;;;;6.05;4.32;;;30.50;68.90;;;;;;4990211;28;20262;-80
2021/06/19 11:14:54;;;;;;;5.63;4.43;;;30.30;69.00;;;;;;4985680;28;20556;-82
2021/06/19 11:17:44;;;;;;;5.18;4.78;;;30.20;69.00;;;;;;4983434;28;20572;-81
2021/06/19 11:20:32;;;;;;;4.90;4.40;;;30.20;69.10;;;;;;4985146;28;20207;-80
2021/06/19 11:23:06;;;;;;;5.38;4.35;;;30.20;68.90;;;;;;4987704;28;20245;-81
2021/06/19 11:25:55;;;;;;;5.93;4.72;;;30.10;69.40;;;;;;4983237;28;20293;-82
2021/06/19 11:28:29;;;;;;;5.03;4.53;;;30.00;70.10;;;;;;4988920;28;20218;-83
2021/06/19 11:31:01;;;;;;;5.15;4.65;;;30.00;69.80;;;;;;4984426;28;20439;-82
2021/06/19 11:33:47;;;;;;;4.50;4.10;;;30.00;69.80;;;;;;4992573;28;21096;-81
2021/06/19 11:36:36;;;;;;;5.70;4.65;;;30.10;69.30;;;;;;4989169;28;20494;-81
2021/06/19 11:39:11;;;;;;;5.22;4.72;;;30.10;69.50;;;;;;4982020;28;20211;-79
2021/06/19 11:41:44;;;;;;;5.32;4.78;;;30.00;69.60;;;;;;4984466;28;20273;-84
2021/06/19 11:44:33;;;;;;;4.93;4.57;;;30.00;69.60;;;;;;4983184;28;20599;-80
2021/06/19 11:47:07;;;;;;;4.80;4.35;;;30.00;70.70;;;;;;4981756;28;20234;-80
2021/06/19 11:49:41;;;;;;;6.95;5.18;;;30.20;69.70;;;;;;4985476;28;20338;-84
2021/06/19 11:52:12;;;;;;;7.22;4.88;;;30.20;69.60;;;;;;4989548;28;20703;-81
2021/06/19 11:54:45;;;;;;;5.43;4.93;;;29.90;69.30;;;;;;4981700;28;20773;-83
2021/06/19 11:57:24;;;;;;;5.25;4.75;;;29.70;69.60;;;;;;4984909;28;20299;-82
2021/06/19 12:00:11;;;;;;;5.40;5.00;;;29.80;70.50;;;;;;4983343;28;20235;-82
2021/06/19 12:02:42;;;;;;;5.03;4.55;;;30.10;69.70;;;;;;4990580;28;20203;-83
2021/06/19 12:05:16;;;;;;;5.63;4.78;;;30.10;69.60;;;;;;5011635;28;20571;-82
2021/06/19 12:07:45;;;;;;;5.03;4.53;;;30.10;69.50;;;;;;4999474;28;20669;-80
2021/06/19 12:10:25;;;;;;;5.53;4.90;;;30.10;69.70;;;;;;4986013;28;20408;-81
2021/06/19 12:13:02;;;;;;;4.97;4.60;;;30.40;69.30;;;;;;4981197;28;20577;-80
2021/06/19 12:15:32;;;;;;;5.25;4.75;;;30.50;68.90;;;;;;4984263;28;20293;-81
2021/06/19 12:18:04;;;;;;;6.43;5.32;;;30.80;69.40;;;;;;4983983;28;20273;-82
2021/06/19 12:20:32;;;;;;;5.03;4.60;;;30.80;69.90;;;;;;4987813;28;20700;-82
2021/06/19 12:23:14;;;;;;;5.60;4.85;;;31.00;69.10;;;;;;4985123;28;20269;-80
2021/06/19 12:25:43;;;;;;;5.72;5.22;;;30.70;69.10;;;;;;4985468;28;20427;-80
2021/06/19 12:28:22;;;;;;;6.25;5.68;;;30.40;69.20;;;;;;4973402;28;20215;-82
2021/06/19 12:30:58;;;;;;;6.32;5.72;;;30.50;70.00;;;;;;4993041;28;20589;-79
2021/06/19 12:33:30;;;;;;;7.93;5.28;;;30.90;70.00;;;;;;4988036;28;20211;-81
2021/06/19 12:36:00;;;;;;;10.07;5.45;;;31.10;69.30;;;;;;4985055;28;20443;-80
2021/06/19 12:38:29;;;;;;;5.35;4.95;;;31.20;69.40;;;;;;4982518;28;20342;-81
2021/06/19 12:40:58;;;;;;;6.03;5.53;;;31.40;68.70;;;;;;4992580;28;20254;-79
2021/06/19 12:43:27;;;;;;;5.63;5.13;;;31.40;68.60;;;;;;4991304;28;20255;-79
2021/06/19 12:45:56;;;;;;;6.15;5.55;;;31.50;68.40;;;;;;4980888;28;20338;-84
2021/06/19 12:48:26;;;;;;;5.40;4.68;;;31.50;68.10;;;;;;4985343;28;20601;-82
2021/06/19 12:50:58;;;;;;;5.28;4.80;;;31.80;67.80;;;;;;4980474;28;20659;-80
2021/06/19 12:53:28;;;;;;;5.22;4.82;;;31.90;68.00;;;;;;4984612;28;20683;-83
2021/06/19 12:56:03;;;;;;;6.22;4.82;;;32.10;67.40;;;;;;4980817;28;20266;-80
2021/06/19 12:58:36;;;;;;;8.93;5.50;;;32.30;67.70;;;;;;4981552;28;20326;-79